createdAt,value
2023-01-12T00:02:39.507Z,6.96
2023-01-12T00:07:43.585Z,6.91
2023-01-12T00:12:46.359Z,6.86
2023-01-12T00:17:49.096Z,6.84
2023-01-12T00:22:53.158Z,6.77
2023-01-12T00:27:55.864Z,6.73
2023-01-12T00:32:58.595Z,6.73
2023-01-12T00:38:02.671Z,6.72
2023-01-12T00:43:22.773Z,6.74
2023-01-12T00:48:26.486Z,6.75
2023-01-12T00:53:30.691Z,6.78
2023-01-12T00:58:33.412Z,6.81
2023-01-12T01:03:36.598Z,6.86
2023-01-12T01:08:40.703Z,6.97
2023-01-12T01:13:44.381Z,7.00
2023-01-12T01:18:47.094Z,7.11
2023-01-12T01:23:51.220Z,7.15
2023-01-12T01:28:53.982Z,7.20
2023-01-12T01:33:56.768Z,7.17
2023-01-12T01:39:00.870Z,7.18
2023-01-12T01:44:05.054Z,7.16
2023-01-12T01:49:33.334Z,7.15
2023-01-12T01:54:40.348Z,7.12
2023-01-12T01:59:46.368Z,7.17
2023-01-12T02:04:49.253Z,7.24
2023-01-12T02:09:53.374Z,7.25
2023-01-12T02:15:14.028Z,7.25
2023-01-12T02:20:48.503Z,7.27
2023-01-12T02:26:18.278Z,7.24
2023-01-12T02:31:46.232Z,7.31
2023-01-12T02:36:53.573Z,7.28
2023-01-12T02:42:21.693Z,7.36
2023-01-12T02:47:30.024Z,7.46
2023-01-12T02:52:33.415Z,7.46
2023-01-12T02:57:36.883Z,7.51
2023-01-12T03:02:40.993Z,7.55
2023-01-12T03:07:48.165Z,7.52
2023-01-12T03:12:52.434Z,7.57
2023-01-12T03:17:59.437Z,7.60
2023-01-12T03:23:04.325Z,7.58
2023-01-12T03:28:07.400Z,7.57
2023-01-12T03:33:12.105Z,7.54
2023-01-12T03:38:20.541Z,7.53
2023-01-12T03:43:28.185Z,7.49
2023-01-12T03:48:36.884Z,7.48
2023-01-12T03:53:41.411Z,7.49
2023-01-12T03:58:44.403Z,7.53
2023-01-12T04:03:48.505Z,7.51
2023-01-12T04:08:51.183Z,7.54
2023-01-12T04:13:53.903Z,7.48
2023-01-12T04:18:58.356Z,7.47
2023-01-12T04:24:01.440Z,7.46
2023-01-12T04:29:04.275Z,7.49
2023-01-12T04:34:08.508Z,7.47
2023-01-12T04:39:11.445Z,7.47
2023-01-12T04:44:14.178Z,7.47
2023-01-12T04:49:18.622Z,7.43
2023-01-12T04:54:21.321Z,7.49
2023-01-12T04:59:24.025Z,7.50
2023-01-12T05:04:28.310Z,7.51
2023-01-12T05:09:48.482Z,7.51
2023-01-12T05:14:51.410Z,7.51
2023-01-12T05:19:55.545Z,7.47
2023-01-12T05:24:58.393Z,7.51
2023-01-12T05:30:01.217Z,7.50
2023-01-12T05:35:06.354Z,7.53
2023-01-12T05:40:10.461Z,7.58
2023-01-12T05:45:13.213Z,7.59
2023-01-12T05:50:17.544Z,7.58
2023-01-12T05:55:40.518Z,7.61
2023-01-12T06:00:43.269Z,7.58
2023-01-12T06:05:53.669Z,7.58
2023-01-12T06:10:56.558Z,7.60
2023-01-12T06:16:04.909Z,7.56
2023-01-12T06:21:10.129Z,7.52
2023-01-12T06:26:12.847Z,7.53
2023-01-12T06:31:16.769Z,7.47
2023-01-12T06:36:20.969Z,7.44
2023-01-12T06:41:41.205Z,7.44
2023-01-12T06:46:44.991Z,7.40
2023-01-12T06:51:51.221Z,7.35
2023-01-12T06:56:55.290Z,7.33
2023-01-12T07:01:58.052Z,7.28
2023-01-12T07:07:02.183Z,7.27
2023-01-12T07:12:05.625Z,7.24
2023-01-12T07:17:08.387Z,7.26
2023-01-12T07:22:12.552Z,7.24
2023-01-12T07:27:15.298Z,7.22
2023-01-12T07:32:18.270Z,7.21
2023-01-12T07:37:22.379Z,7.23
2023-01-12T07:42:25.134Z,7.22
2023-01-12T07:47:28.533Z,7.27
2023-01-12T07:52:32.614Z,7.26
2023-01-12T07:57:37.173Z,7.24
2023-01-12T08:02:39.915Z,7.24
2023-01-12T08:07:44.080Z,7.58
2023-01-12T08:12:46.911Z,7.69
2023-01-12T08:17:52.643Z,7.78
2023-01-12T08:23:00.235Z,7.58
2023-01-12T08:28:06.657Z,7.66
2023-01-12T08:33:09.445Z,7.60
2023-01-12T08:38:13.627Z,7.70
2023-01-12T08:43:37.323Z,7.71
2023-01-12T08:48:40.132Z,7.80
2023-01-12T08:53:44.247Z,7.82
2023-01-12T08:58:47.337Z,7.81
2023-01-12T09:03:50.237Z,8.01
2023-01-12T09:08:56.531Z,7.94
2023-01-12T09:13:59.236Z,7.90
2023-01-12T09:19:02.396Z,7.89
2023-01-12T09:24:07.226Z,7.92
2023-01-12T09:29:11.355Z,7.93
2023-01-12T09:34:14.638Z,8.03
2023-01-12T09:39:27.409Z,8.09
2023-01-12T09:44:52.191Z,8.14
2023-01-12T09:50:08.089Z,8.23
2023-01-12T09:55:16.626Z,8.27
2023-01-12T10:00:20.888Z,8.35
2023-01-12T10:05:40.418Z,8.41
2023-01-12T10:10:51.526Z,8.48
2023-01-12T10:15:58.278Z,8.50
2023-01-12T10:21:01.480Z,8.65
2023-01-12T10:26:14.656Z,8.69
2023-01-12T10:31:21.627Z,8.72
2023-01-12T10:36:25.384Z,8.71
2023-01-12T10:41:30.315Z,8.69
2023-01-12T10:46:33.828Z,8.72
2023-01-12T10:51:37.142Z,8.68
2023-01-12T10:56:43.991Z,8.78
2023-01-12T11:01:48.517Z,8.77
2023-01-12T11:07:02.782Z,8.76
2023-01-12T11:12:21.716Z,8.84
2023-01-12T11:17:33.780Z,8.88
2023-01-12T11:22:38.507Z,8.90
2023-01-12T11:27:45.995Z,8.88
2023-01-12T11:32:53.629Z,8.90
2023-01-12T11:37:59.509Z,8.95
2023-01-12T11:43:31.945Z,8.98
2023-01-12T11:48:39.821Z,8.97
2023-01-12T11:53:42.759Z,8.98
2023-01-12T11:58:55.370Z,9.01
2023-01-12T12:04:01.466Z,9.04
2023-01-12T12:09:13.695Z,9.08
2023-01-12T12:14:28.997Z,9.09
2023-01-12T12:19:37.527Z,9.16
2023-01-12T12:25:00.984Z,9.13
2023-01-12T12:30:24.813Z,9.17
2023-01-12T12:35:44.839Z,9.18
2023-01-12T12:41:13.610Z,9.19
2023-01-12T12:46:24.134Z,9.20
2023-01-12T12:51:28.022Z,9.19
2023-01-12T12:56:32.267Z,9.20
2023-01-12T13:01:43.615Z,9.20
2023-01-12T13:06:48.609Z,9.20
2023-01-12T13:11:54.041Z,9.22
2023-01-12T13:17:01.223Z,9.20
2023-01-12T13:22:28.098Z,9.21
2023-01-12T13:27:50.516Z,9.22
2023-01-12T13:33:01.715Z,9.21
2023-01-12T13:38:11.433Z,9.22
2023-01-12T13:43:19.630Z,9.23
2023-01-12T13:48:24.313Z,9.22
2023-01-12T13:53:29.241Z,9.24
2023-01-12T13:58:40.015Z,9.24
2023-01-12T14:03:57.067Z,9.23
2023-01-12T14:09:08.698Z,9.24
2023-01-12T14:14:45.067Z,9.26
2023-01-12T14:19:51.754Z,9.26
2023-01-12T14:24:54.478Z,9.31
2023-01-12T14:29:57.209Z,9.39
2023-01-12T14:35:01.311Z,9.34
2023-01-12T14:40:04.326Z,9.39
2023-01-12T14:45:40.146Z,9.44
2023-01-12T14:50:59.668Z,9.42
2023-01-12T14:56:10.788Z,9.48
2023-01-12T15:01:13.828Z,9.41
2023-01-12T15:06:18.037Z,9.37
2023-01-12T15:11:30.479Z,9.36
2023-01-12T15:17:02.497Z,9.35
2023-01-12T15:22:27.574Z,9.32
2023-01-12T15:27:30.914Z,9.29
2023-01-12T15:32:46.763Z,9.27
2023-01-12T15:37:51.651Z,9.25
2023-01-12T15:42:55.653Z,9.22
2023-01-12T15:47:58.379Z,9.20
2023-01-12T15:53:02.687Z,9.21
2023-01-12T15:58:05.413Z,9.20
2023-01-12T16:03:23.994Z,9.19
2023-01-12T16:08:36.029Z,9.19
2023-01-12T16:13:39.057Z,9.21
2023-01-12T16:18:41.830Z,9.20
2023-01-12T16:23:45.997Z,9.21
2023-01-12T16:28:48.686Z,9.19
2023-01-12T16:33:51.536Z,9.19
2023-01-12T16:38:55.792Z,9.16
2023-01-12T16:43:59.405Z,9.17
2023-01-12T16:49:03.894Z,9.19
2023-01-12T16:54:08.026Z,9.21
2023-01-12T16:59:10.757Z,9.16
2023-01-12T17:04:13.632Z,9.17
2023-01-12T17:09:18.604Z,9.15
2023-01-12T17:14:25.053Z,9.14
2023-01-12T17:19:28.297Z,9.12
2023-01-12T17:24:32.826Z,9.13
2023-01-12T17:29:35.787Z,9.10
2023-01-12T17:34:40.135Z,9.13
2023-01-12T17:39:44.348Z,9.11
2023-01-12T17:44:47.167Z,9.13
2023-01-12T17:49:49.934Z,9.11
2023-01-12T17:54:54.235Z,9.11
2023-01-12T17:59:57.104Z,9.11
2023-01-12T18:04:59.903Z,9.08
2023-01-12T18:10:04.211Z,9.07
2023-01-12T18:15:08.560Z,9.05
2023-01-12T18:20:11.968Z,9.04
2023-01-12T18:25:16.205Z,9.07
2023-01-12T18:30:19.284Z,9.07
2023-01-12T18:35:22.168Z,9.09
2023-01-12T18:40:26.272Z,9.08
2023-01-12T18:45:29.098Z,9.05
2023-01-12T18:50:49.768Z,9.06
2023-01-12T18:55:56.933Z,9.03
2023-01-12T19:01:00.878Z,9.04
2023-01-12T19:06:21.925Z,9.05
2023-01-12T19:11:26.312Z,9.03
2023-01-12T19:16:46.610Z,9.06
2023-01-12T19:22:06.758Z,9.08
2023-01-12T19:27:31.072Z,9.08
2023-01-12T19:32:33.847Z,9.08
2023-01-12T19:37:36.655Z,9.11
2023-01-12T19:42:58.106Z,9.10
2023-01-12T19:48:00.779Z,9.10
2023-01-12T19:53:03.907Z,9.10
2023-01-12T19:58:09.159Z,9.11
2023-01-12T20:03:12.694Z,9.14
2023-01-12T20:08:16.006Z,9.16
2023-01-12T20:13:20.114Z,9.16
2023-01-12T20:18:22.889Z,9.16
2023-01-12T20:23:25.645Z,9.15
2023-01-12T20:28:29.752Z,9.16
2023-01-12T20:33:32.455Z,9.17
2023-01-12T20:38:35.205Z,9.20
2023-01-12T20:43:39.290Z,9.21
2023-01-12T20:48:42.340Z,9.20
2023-01-12T20:53:45.058Z,9.22
2023-01-12T20:58:49.158Z,9.21
2023-01-12T21:03:52.971Z,9.24
2023-01-12T21:08:55.695Z,9.28
2023-01-12T21:13:59.807Z,9.27
2023-01-12T21:19:03.329Z,9.32
2023-01-12T21:24:06.629Z,9.29
2023-01-12T21:29:10.737Z,9.27
2023-01-12T21:34:13.557Z,9.25
2023-01-12T21:39:16.373Z,9.20
2023-01-12T21:44:20.480Z,9.12
2023-01-12T21:49:23.457Z,9.10
2023-01-12T21:54:26.219Z,9.05
2023-01-12T21:59:30.303Z,9.05
2023-01-12T22:04:33.169Z,9.06
2023-01-12T22:09:35.923Z,9.07
2023-01-12T22:14:40.070Z,9.10
2023-01-12T22:19:43.045Z,9.14
2023-01-12T22:24:45.753Z,9.14
2023-01-12T22:29:49.838Z,9.16
2023-01-12T22:34:52.518Z,9.18
2023-01-12T22:39:55.721Z,9.17
2023-01-12T22:44:59.846Z,9.19
2023-01-12T22:50:02.582Z,9.18
2023-01-12T22:55:06.030Z,9.25
2023-01-12T23:00:12.683Z,9.22
2023-01-12T23:05:15.717Z,9.24
2023-01-12T23:10:19.237Z,9.24
2023-01-12T23:15:23.467Z,9.21
2023-01-12T23:20:26.518Z,9.21
2023-01-12T23:25:29.874Z,9.22
2023-01-12T23:30:35.923Z,9.22
2023-01-12T23:35:39.692Z,9.21
2023-01-12T23:40:42.599Z,9.19
2023-01-12T23:45:46.890Z,9.13
2023-01-12T23:50:49.870Z,9.14
2023-01-12T23:55:52.815Z,9.18
